Time;durP1;ratioP1;P1;durP2;ratioP2;P2;SDS_P1;SDS_P2;PMS_P1;PMS_P2;Temp;Humidity;BMP_temperature;BMP_pressure;BME280_temperature;BME280_humidity;BME280_pressure;Samples;Min_cycle;Max_cycle;Signal;HPM_P1;HPM_P2
2023/05/28 00:04:37;;;;;;;10.20;3.50;;;14.50;3.30;;;;;;20876383;28;20037;-39
2023/05/28 00:14:38;;;;;;;9.75;3.55;;;14.50;3.60;;;;;;20869462;28;20049;-39
2023/05/28 00:24:39;;;;;;;12.43;4.32;;;14.50;2.80;;;;;;20868743;28;20041;-39
2023/05/28 00:34:40;;;;;;;12.05;3.60;;;14.40;1.00;;;;;;20875509;28;20032;-40
2023/05/28 00:44:42;;;;;;;10.77;4.00;;;14.30;1.00;;;;;;20889734;28;20535;-39
2023/05/28 00:54:43;;;;;;;5.95;3.13;;;14.20;1.00;;;;;;20886197;28;20048;-39
2023/05/28 01:04:44;;;;;;;11.85;4.40;;;14.10;1.00;;;;;;20898509;28;20380;-39
2023/05/28 01:14:45;;;;;;;7.03;3.55;;;14.00;1.00;;;;;;20893993;28;20056;-39
2023/05/28 01:24:48;;;;;;;25.98;5.25;;;13.80;1.00;;;;;;20883638;28;20051;-41
2023/05/28 01:34:49;;;;;;;15.23;4.55;;;13.70;1.00;;;;;;20886126;28;20039;-39
2023/05/28 01:44:51;;;;;;;9.95;4.10;;;13.60;1.00;;;;;;20882439;28;20032;-40
2023/05/28 01:54:52;;;;;;;8.88;3.22;;;13.50;4.20;;;;;;20888508;28;20041;-41
2023/05/28 02:04:53;;;;;;;10.75;3.95;;;13.50;4.00;;;;;;20879815;28;20037;-39
2023/05/28 02:14:54;;;;;;;15.70;4.78;;;13.50;3.70;;;;;;20889041;28;20167;-41
2023/05/28 02:24:55;;;;;;;10.13;3.25;;;13.60;1.00;;;;;;20886885;28;20413;-41
2023/05/28 02:34:57;;;;;;;11.52;3.53;;;13.50;1.00;;;;;;21674227;23;20049;-83
2023/05/28 02:44:59;;;;;;;13.23;3.42;;;13.40;1.00;;;;;;20921013;28;20048;-83
2023/05/28 02:55:00;;;;;;;11.50;3.85;;;13.40;1.00;;;;;;20938173;28;20033;-84
2023/05/28 03:05:02;;;;;;;7.90;3.17;;;13.30;1.00;;;;;;20928844;28;20051;-83
2023/05/28 03:15:03;;;;;;;7.90;3.45;;;13.20;1.00;;;;;;20934579;28;20424;-82
2023/05/28 03:25:05;;;;;;;7.97;3.33;;;13.10;1.00;;;;;;20927778;28;20053;-82
2023/05/28 03:35:07;;;;;;;11.70;3.72;;;13.00;1.40;;;;;;20903033;28;20049;-82
2023/05/28 03:45:09;;;;;;;10.10;3.60;;;12.90;5.20;;;;;;20914092;28;20053;-83
2023/05/28 03:55:10;;;;;;;12.82;4.03;;;12.90;7.90;;;;;;20884912;28;20032;-84
2023/05/28 04:05:11;;;;;;;15.50;3.55;;;13.00;3.80;;;;;;20893074;28;20049;-83
2023/05/28 04:15:12;;;;;;;9.70;4.13;;;13.00;5.10;;;;;;20913678;28;20041;-80
2023/05/28 04:25:13;;;;;;;15.55;3.63;;;12.90;4.70;;;;;;20917798;28;20544;-83
2023/05/28 04:35:14;;;;;;;9.00;3.60;;;12.80;7.20;;;;;;20912542;28;20380;-81
2023/05/28 04:45:16;;;;;;;10.52;3.70;;;12.90;12.80;;;;;;20922102;28;20041;-84
2023/05/28 04:55:17;;;;;;;13.65;3.78;;;13.00;24.10;;;;;;20900119;28;20606;-84
2023/05/28 05:05:18;;;;;;;11.95;4.88;;;13.00;42.10;;;;;;20891826;28;20043;-84
2023/05/28 05:15:19;;;;;;;9.75;4.43;;;13.20;28.40;;;;;;20926067;28;20037;-84
2023/05/28 05:25:20;;;;;;;9.35;3.40;;;13.40;19.40;;;;;;20926466;28;20036;-82
2023/05/28 05:35:21;;;;;;;10.35;3.85;;;13.60;9.30;;;;;;20925194;28;20045;-84
2023/05/28 05:45:22;;;;;;;10.70;3.53;;;13.80;2.50;;;;;;20886787;28;20037;-82
2023/05/28 05:55:23;;;;;;;9.20;3.70;;;14.10;1.00;;;;;;20907879;28;20029;-84
2023/05/28 06:05:24;;;;;;;5.90;3.08;;;14.40;1.00;;;;;;20912964;28;20048;-83
2023/05/28 06:15:25;;;;;;;11.68;4.35;;;14.60;1.00;;;;;;20920641;28;20048;-83
2023/05/28 06:25:27;;;;;;;9.55;3.33;;;14.80;1.00;;;;;;20922682;28;20033;-83
2023/05/28 06:35:29;;;;;;;9.98;3.58;;;14.80;1.00;;;;;;20901766;28;20045;-83
2023/05/28 06:45:32;;;;;;;6.82;2.67;;;14.70;1.00;;;;;;20902541;28;20037;-80
2023/05/28 06:55:33;;;;;;;8.82;3.38;;;15.00;1.00;;;;;;20902630;28;20045;-80
2023/05/28 07:05:36;;;;;;;10.20;3.75;;;15.30;1.00;;;;;;20900955;28;20742;-80
2023/05/28 07:15:37;;;;;;;8.98;2.45;;;15.50;1.00;;;;;;20912040;28;20032;-80
2023/05/28 07:25:38;;;;;;;6.72;2.78;;;15.80;1.00;;;;;;20906084;28;20140;-80
2023/05/28 07:35:39;;;;;;;12.48;3.25;;;15.80;1.00;;;;;;20887569;28;20047;-80
2023/05/28 07:45:40;;;;;;;7.03;2.60;;;16.00;1.00;;;;;;20905299;28;20037;-80
2023/05/28 07:55:42;;;;;;;6.90;2.70;;;16.20;1.00;;;;;;20909560;28;20460;-80
2023/05/28 08:05:43;;;;;;;8.27;3.17;;;16.30;1.00;;;;;;20913422;28;20041;-80
2023/05/28 08:15:44;;;;;;;11.73;3.05;;;16.40;1.00;;;;;;20922016;28;20471;-80
2023/05/28 08:25:45;;;;;;;7.03;2.03;;;16.50;1.00;;;;;;20920302;28;20407;-79
2023/05/28 08:35:46;;;;;;;5.97;2.33;;;16.80;1.00;;;;;;20926575;28;20041;-79
2023/05/28 08:45:52;;;;;;;6.97;2.83;;;17.20;1.00;;;;;;20914878;28;20048;-79
2023/05/28 08:55:53;;;;;;;5.78;2.35;;;17.50;1.00;;;;;;20908762;28;20839;-79
2023/05/28 09:05:54;;;;;;;7.57;2.53;;;17.60;1.00;;;;;;20915122;28;20506;-80
2023/05/28 09:15:56;;;;;;;7.43;2.72;;;17.90;1.00;;;;;;20909967;28;20484;-79
2023/05/28 09:26:00;;;;;;;7.43;2.40;;;18.10;1.00;;;;;;20911817;28;20037;-79
2023/05/28 09:36:02;;;;;;;6.93;2.45;;;18.50;1.00;;;;;;20924044;28;20036;-79
2023/05/28 09:46:08;;;;;;;7.05;2.22;;;19.00;1.00;;;;;;20912692;28;20041;-79
2023/05/28 09:56:10;;;;;;;11.15;3.20;;;18.90;1.00;;;;;;20881504;28;20029;-78
2023/05/28 10:06:16;;;;;;;8.65;3.65;;;19.10;1.00;;;;;;20931026;28;20107;-84
2023/05/28 10:16:19;;;;;;;8.38;2.92;;;19.10;1.00;;;;;;20917537;28;20266;-82
2023/05/28 10:26:21;;;;;;;6.88;2.78;;;19.30;1.00;;;;;;20904264;28;20037;-82
2023/05/28 10:36:22;;;;;;;8.95;3.33;;;19.50;1.00;;;;;;20916845;28;20053;-77
2023/05/28 10:46:23;;;;;;;9.45;3.15;;;19.80;1.00;;;;;;20916159;28;20040;-78
2023/05/28 10:56:26;;;;;;;7.97;2.55;;;20.10;1.00;;;;;;20891330;28;20063;-75
2023/05/28 11:06:27;;;;;;;6.57;3.03;;;20.00;1.00;;;;;;20921683;28;20043;-75
2023/05/28 11:16:32;;;;;;;8.48;3.22;;;20.10;1.00;;;;;;20981136;23;20052;-40
2023/05/28 11:26:33;;;;;;;6.70;3.08;;;20.30;1.00;;;;;;20884085;28;20450;-40
2023/05/28 11:36:43;;;;;;;7.78;3.22;;;20.50;1.00;;;;;;20881606;28;20037;-40
2023/05/28 11:46:44;;;;;;;9.40;2.35;;;20.60;1.00;;;;;;20892045;28;20603;-40
2023/05/28 11:56:50;;;;;;;6.03;2.80;;;20.80;1.00;;;;;;20890456;28;20408;-40
2023/05/28 12:06:55;;;;;;;6.63;2.78;;;21.30;1.00;;;;;;20879805;28;20032;-40
2023/05/28 12:17:08;;;;;;;8.30;2.83;;;21.00;1.00;;;;;;20873586;28;20504;-40
2023/05/28 12:27:09;;;;;;;5.88;2.67;;;21.00;1.00;;;;;;20891445;28;20037;-40
2023/05/28 12:37:10;;;;;;;8.50;2.90;;;20.90;1.00;;;;;;20885225;28;20037;-40
2023/05/28 12:47:11;;;;;;;6.20;2.67;;;20.50;1.00;;;;;;20906252;28;20052;-40
2023/05/28 12:57:12;;;;;;;6.20;2.30;;;20.20;1.00;;;;;;20896747;28;20045;-40
2023/05/28 13:07:14;;;;;;;6.93;2.42;;;20.30;1.00;;;;;;20900126;28;20462;-40
2023/05/28 13:17:15;;;;;;;5.50;2.25;;;20.50;1.00;;;;;;20902328;28;20044;-40
2023/05/28 13:27:16;;;;;;;6.35;2.42;;;20.50;1.00;;;;;;20897333;28;20116;-40
2023/05/28 13:37:17;;;;;;;4.88;2.20;;;20.40;1.00;;;;;;20911023;28;20032;-40
2023/05/28 13:47:19;;;;;;;5.03;2.80;;;20.90;1.00;;;;;;20914059;28;20452;-40
2023/05/28 13:57:20;;;;;;;6.65;2.60;;;21.00;1.00;;;;;;20914910;28;20047;-40
2023/05/28 14:07:21;;;;;;;4.00;1.95;;;21.10;1.00;;;;;;20912251;28;20057;-40
2023/05/28 14:17:22;;;;;;;6.45;2.10;;;21.10;1.00;;;;;;20903160;28;20056;-40
2023/05/28 14:27:23;;;;;;;4.05;1.77;;;20.70;1.00;;;;;;20892553;28;20045;-40
2023/05/28 14:37:24;;;;;;;4.43;2.10;;;20.60;1.00;;;;;;20891133;28;20491;-40
2023/05/28 14:47:25;;;;;;;3.60;1.35;;;20.80;1.00;;;;;;20892112;28;20044;-40
2023/05/28 14:57:27;;;;;;;4.47;2.10;;;20.70;1.00;;;;;;20884343;28;20045;-40
2023/05/28 15:07:28;;;;;;;6.28;2.00;;;20.70;1.00;;;;;;20888555;28;20037;-40
2023/05/28 15:17:29;;;;;;;4.47;2.22;;;20.60;1.00;;;;;;20879072;28;21444;-40
2023/05/28 15:27:31;;;;;;;5.45;1.75;;;20.60;1.00;;;;;;20880127;28;20099;-40
2023/05/28 15:37:32;;;;;;;3.72;1.73;;;20.50;1.00;;;;;;20879464;28;20041;-40
2023/05/28 15:47:33;;;;;;;6.70;2.00;;;20.40;1.00;;;;;;20896762;28;20055;-40
2023/05/28 15:57:34;;;;;;;6.07;1.70;;;20.30;1.00;;;;;;20903212;28;20481;-40
2023/05/28 16:07:35;;;;;;;3.38;1.85;;;20.20;1.00;;;;;;20901645;28;20041;-40
2023/05/28 16:17:40;;;;;;;5.70;1.77;;;19.90;1.00;;;;;;20921784;28;20051;-40
2023/05/28 16:27:41;;;;;;;7.65;1.80;;;19.80;1.00;;;;;;20920334;28;20041;-40
2023/05/28 16:37:42;;;;;;;7.70;2.22;;;19.60;1.00;;;;;;20922358;28;20040;-40
2023/05/28 16:47:44;;;;;;;5.72;2.50;;;19.20;1.00;;;;;;20919416;28;21819;-40
2023/05/28 16:57:45;;;;;;;5.18;1.98;;;18.80;1.00;;;;;;20896947;28;20052;-40
2023/05/28 17:07:46;;;;;;;5.55;1.67;;;18.50;1.00;;;;;;20896337;28;20048;-40
2023/05/28 17:17:47;;;;;;;7.65;2.63;;;18.40;1.00;;;;;;20902982;28;20744;-40
2023/05/28 17:27:48;;;;;;;6.82;2.55;;;18.30;1.00;;;;;;20893992;28;20044;-40
2023/05/28 17:37:49;;;;;;;7.03;2.33;;;18.10;1.00;;;;;;20900069;28;20041;-40
2023/05/28 17:47:50;;;;;;;7.32;2.67;;;18.10;1.00;;;;;;20892628;28;20036;-40
2023/05/28 17:57:51;;;;;;;7.05;3.15;;;18.00;1.00;;;;;;20895229;28;20029;-43
2023/05/28 18:07:53;;;;;;;5.18;3.05;;;17.80;1.00;;;;;;20884697;28;20044;-41
2023/05/28 18:17:54;;;;;;;7.05;3.45;;;17.60;1.00;;;;;;20878898;28;20041;-41
2023/05/28 18:27:55;;;;;;;6.28;2.63;;;17.50;1.00;;;;;;20895254;28;20044;-41
2023/05/28 18:37:56;;;;;;;7.97;3.75;;;17.30;1.00;;;;;;20894266;28;20049;-41
2023/05/28 18:47:59;;;;;;;11.00;4.07;;;17.20;1.00;;;;;;20901633;28;20403;-41
2023/05/28 18:58:00;;;;;;;9.18;3.17;;;16.90;1.00;;;;;;20888395;28;20075;-41
2023/05/28 19:08:01;;;;;;;9.88;3.70;;;16.60;1.00;;;;;;20889200;28;20045;-41
2023/05/28 19:18:02;;;;;;;8.95;3.25;;;16.50;1.00;;;;;;20897172;28;20049;-41
2023/05/28 19:28:03;;;;;;;10.95;3.55;;;16.30;1.00;;;;;;20891929;28;20955;-41
2023/05/28 19:38:04;;;;;;;6.75;3.35;;;16.00;1.00;;;;;;20910239;28;20040;-41
2023/05/28 19:48:05;;;;;;;5.75;2.97;;;15.90;1.00;;;;;;20903967;28;20041;-41
2023/05/28 19:58:08;;;;;;;5.85;2.40;;;15.70;1.00;;;;;;20900507;28;20562;-41
2023/05/28 20:08:09;;;;;;;5.55;2.33;;;15.50;1.00;;;;;;20889594;28;20055;-41
2023/05/28 20:18:10;;;;;;;7.43;2.17;;;15.40;1.00;;;;;;20880361;28;20045;-41
2023/05/28 20:28:12;;;;;;;7.95;2.55;;;15.30;1.00;;;;;;20887889;28;20037;-41
2023/05/28 20:38:14;;;;;;;6.45;2.60;;;15.30;1.00;;;;;;20879941;28;20052;-41
2023/05/28 20:48:15;;;;;;;6.60;2.60;;;15.20;1.00;;;;;;20877953;28;20515;-41
2023/05/28 20:58:16;;;;;;;5.13;2.25;;;15.10;1.00;;;;;;20890660;28;20044;-41
2023/05/28 21:08:17;;;;;;;5.75;2.05;;;14.90;1.00;;;;;;20887989;28;20622;-41
2023/05/28 21:18:18;;;;;;;6.85;2.30;;;14.70;1.00;;;;;;20912504;28;20049;-42
2023/05/28 21:28:19;;;;;;;7.28;2.28;;;14.50;1.00;;;;;;20916115;28;20051;-41
2023/05/28 21:38:22;;;;;;;5.60;2.00;;;14.30;1.00;;;;;;20912333;28;20048;-41
2023/05/28 21:48:24;;;;;;;6.32;1.80;;;14.20;1.00;;;;;;20914405;28;20080;-41
2023/05/28 21:58:25;;;;;;;5.40;1.90;;;14.10;1.00;;;;;;20910187;28;20044;-41
2023/05/28 22:08:26;;;;;;;7.10;1.30;;;14.00;1.00;;;;;;20899999;28;20048;-42
2023/05/28 22:18:27;;;;;;;6.78;1.98;;;13.80;1.00;;;;;;20896504;28;20511;-42
2023/05/28 22:28:28;;;;;;;4.38;1.48;;;13.80;1.00;;;;;;20903669;28;20106;-41
2023/05/28 22:38:29;;;;;;;6.68;1.73;;;13.50;1.00;;;;;;20899999;28;20040;-41
2023/05/28 22:48:32;;;;;;;9.13;2.15;;;13.40;1.00;;;;;;20891335;28;20044;-41
2023/05/28 22:58:34;;;;;;;8.63;2.33;;;13.30;1.00;;;;;;20892004;28;20728;-41
2023/05/28 23:08:35;;;;;;;12.23;2.38;;;13.30;1.00;;;;;;20898354;28;20408;-41
2023/05/28 23:18:37;;;;;;;6.07;1.80;;;13.30;1.00;;;;;;20886777;28;20036;-41
2023/05/28 23:28:39;;;;;;;11.18;2.30;;;13.10;1.00;;;;;;20891080;28;20518;-41
2023/05/28 23:38:40;;;;;;;4.70;1.95;;;13.00;1.00;;;;;;20892365;28;20451;-42
2023/05/28 23:48:41;;;;;;;10.63;1.98;;;12.90;1.00;;;;;;20894778;28;20044;-41
2023/05/28 23:58:42;;;;;;;9.98;1.92;;;12.70;1.00;;;;;;20898503;28;20036;-43
